Time;durP1;ratioP1;P1;durP2;ratioP2;P2;SDS_P1;SDS_P2;PMS_P1;PMS_P2;Temp;Humidity;BMP_temperature;BMP_pressure;BME280_temperature;BME280_humidity;BME280_pressure;Samples;Min_cycle;Max_cycle;Signal;HPM_P1;HPM_P2
2023/01/04 20:26:31;;;;;;;2.90;2.63;;;8.20;67.80;;;;;;5093392;27;1283245;-82
2023/01/04 20:28:56;;;;;;;2.92;2.67;;;8.30;67.60;;;;;;5131429;28;20031;-83
2023/01/04 20:31:22;;;;;;;2.58;2.38;;;8.40;67.50;;;;;;5130002;28;20031;-84
2023/01/04 20:33:48;;;;;;;2.45;2.25;;;8.40;67.40;;;;;;5131637;28;20034;-84
2023/01/04 20:36:20;;;;;;;2.08;1.98;;;8.50;67.30;;;;;;5131272;28;20034;-83
2023/01/04 20:38:46;;;;;;;2.53;2.33;;;8.50;67.10;;;;;;5131322;28;20489;-83
2023/01/04 20:41:15;;;;;;;2.50;2.30;;;8.60;67.00;;;;;;5112423;28;20165;-84
2023/01/04 20:43:42;;;;;;;2.40;2.20;;;8.60;66.90;;;;;;5131417;28;20019;-83
2023/01/04 20:46:13;;;;;;;2.42;2.22;;;8.60;66.90;;;;;;5131398;28;20038;-84
2023/01/04 20:48:40;;;;;;;2.40;2.30;;;8.60;66.80;;;;;;5131327;28;20031;-83
2023/01/04 20:51:12;;;;;;;2.20;2.08;;;8.70;66.70;;;;;;5131096;28;20119;-83
2023/01/04 20:53:38;;;;;;;2.22;2.05;;;8.70;66.60;;;;;;5112460;28;20422;-83
2023/01/04 20:56:12;;;;;;;2.40;2.20;;;8.70;66.50;;;;;;5130972;28;20024;-84
2023/01/04 20:58:37;;;;;;;2.50;2.30;;;8.70;66.50;;;;;;5112494;28;20376;-85
2023/01/04 21:01:05;;;;;;;1.90;1.80;;;8.70;66.40;;;;;;5130903;28;20035;-84
2023/01/04 21:03:31;;;;;;;2.13;2.03;;;8.70;66.30;;;;;;5112414;28;20028;-84
2023/01/04 21:06:04;;;;;;;2.15;2.05;;;8.70;66.30;;;;;;5130381;28;20027;-85
2023/01/04 21:08:29;;;;;;;2.08;1.98;;;8.70;66.20;;;;;;5112777;28;20030;-84
2023/01/04 21:10:55;;;;;;;2.40;2.30;;;8.70;66.20;;;;;;5131051;28;20035;-82
2023/01/04 21:13:21;;;;;;;2.28;2.15;;;8.70;66.20;;;;;;5096049;28;20027;-84
2023/01/04 21:15:47;;;;;;;2.67;2.47;;;8.80;66.20;;;;;;5130935;28;20445;-84
2023/01/04 21:18:13;;;;;;;2.35;2.10;;;8.70;66.60;;;;;;5130761;28;20019;-83
2023/01/04 21:20:42;;;;;;;2.30;2.13;;;8.80;66.10;;;;;;5129272;28;20038;-82
2023/01/04 21:23:16;;;;;;;2.20;2.00;;;8.80;66.10;;;;;;5117023;28;20066;-83
2023/01/04 21:25:43;;;;;;;2.43;2.23;;;8.80;66.00;;;;;;5117160;28;20046;-83
2023/01/04 21:28:10;;;;;;;2.55;2.30;;;8.70;65.90;;;;;;5117461;28;20046;-83
2023/01/04 21:30:39;;;;;;;2.78;2.10;;;8.80;66.00;;;;;;5116894;28;20032;-83
2023/01/04 21:33:05;;;;;;;2.47;2.25;;;8.80;65.90;;;;;;5116750;28;20488;-83
2023/01/04 21:35:31;;;;;;;2.10;2.00;;;8.80;65.90;;;;;;5098528;28;20031;-84
2023/01/04 21:37:57;;;;;;;2.40;2.20;;;8.80;65.90;;;;;;5116875;28;20024;-83
2023/01/04 21:40:22;;;;;;;2.28;2.17;;;8.80;65.80;;;;;;5116724;28;20102;-83
2023/01/04 21:42:48;;;;;;;2.72;2.50;;;8.80;65.80;;;;;;5116671;28;20101;-84
2023/01/04 21:45:14;;;;;;;2.38;2.00;;;8.70;65.70;;;;;;5116789;28;20030;-83
2023/01/04 21:47:39;;;;;;;2.58;2.38;;;8.80;65.80;;;;;;5117961;28;20026;-82
2023/01/04 21:50:05;;;;;;;2.42;2.22;;;8.70;65.70;;;;;;5116586;28;20062;-84
2023/01/04 21:52:31;;;;;;;2.50;2.13;;;8.80;65.70;;;;;;5116844;28;20049;-83
2023/01/04 21:54:57;;;;;;;2.17;2.08;;;8.80;65.70;;;;;;5116652;28;20028;-84
2023/01/04 21:57:23;;;;;;;2.60;2.40;;;8.80;65.70;;;;;;5116594;28;20024;-83
2023/01/04 21:59:48;;;;;;;2.72;2.53;;;8.70;65.60;;;;;;5117162;28;20110;-83
2023/01/04 22:02:16;;;;;;;2.30;2.10;;;8.80;65.60;;;;;;5116573;28;20362;-83
2023/01/04 22:04:42;;;;;;;2.33;2.20;;;8.70;65.60;;;;;;5098165;28;20031;-84
2023/01/04 22:07:08;;;;;;;2.08;1.98;;;8.70;65.50;;;;;;5116312;28;20027;-84
2023/01/04 22:09:34;;;;;;;2.50;2.30;;;8.70;65.50;;;;;;5115480;28;20040;-83
2023/01/04 22:11:59;;;;;;;2.45;2.35;;;8.70;65.50;;;;;;5116210;28;20024;-83
2023/01/04 22:14:25;;;;;;;2.10;2.00;;;8.70;65.50;;;;;;5115995;28;20027;-84
2023/01/04 22:16:50;;;;;;;2.10;2.00;;;8.70;65.50;;;;;;5115930;28;20031;-83
2023/01/04 22:19:16;;;;;;;2.33;2.20;;;8.70;65.50;;;;;;5115990;28;20023;-83
2023/01/04 22:21:42;;;;;;;2.33;2.22;;;8.70;65.50;;;;;;5116012;28;20089;-84
2023/01/04 22:24:14;;;;;;;2.28;2.17;;;8.70;65.50;;;;;;5116167;28;20031;-84
2023/01/04 22:26:40;;;;;;;2.63;2.42;;;8.70;65.40;;;;;;5115761;28;20051;-83
2023/01/04 22:29:07;;;;;;;2.10;2.00;;;8.70;65.40;;;;;;5115569;28;20020;-84
2023/01/04 22:31:33;;;;;;;2.30;2.10;;;8.70;65.40;;;;;;5115581;28;20060;-83
2023/01/04 22:33:58;;;;;;;2.70;2.50;;;8.70;65.40;;;;;;5114535;28;20435;-83
2023/01/04 22:36:24;;;;;;;2.10;2.00;;;8.70;65.40;;;;;;5115671;28;20051;-84
2023/01/04 22:38:51;;;;;;;2.33;2.17;;;8.70;65.40;;;;;;5115544;28;20107;-83
2023/01/04 22:41:20;;;;;;;2.50;2.30;;;8.70;65.40;;;;;;5115634;28;20373;-84
2023/01/04 22:43:46;;;;;;;2.47;2.28;;;8.70;65.40;;;;;;5097490;28;20475;-84
2023/01/04 22:46:16;;;;;;;2.15;2.05;;;8.70;65.40;;;;;;5097276;28;20020;-83
2023/01/04 22:48:43;;;;;;;2.30;2.10;;;8.70;65.40;;;;;;5115219;28;20023;-84
2023/01/04 22:51:11;;;;;;;2.42;2.22;;;8.70;65.30;;;;;;5115300;28;20050;-84
2023/01/04 22:53:37;;;;;;;2.65;2.45;;;8.70;65.40;;;;;;5115268;28;20035;-84
2023/01/04 22:56:08;;;;;;;2.50;2.30;;;8.70;65.30;;;;;;5115376;28;20160;-84
2023/01/04 22:58:34;;;;;;;2.50;2.30;;;8.70;65.30;;;;;;5115380;28;20047;-83
2023/01/04 23:01:00;;;;;;;2.42;2.20;;;8.70;65.30;;;;;;5114985;28;20569;-85
2023/01/04 23:03:26;;;;;;;2.45;2.25;;;8.70;65.30;;;;;;5114977;28;20439;-84
2023/01/04 23:05:51;;;;;;;2.67;2.38;;;8.70;65.30;;;;;;5115357;28;20019;-83
2023/01/04 23:08:17;;;;;;;2.72;2.53;;;8.70;65.30;;;;;;5115322;28;20027;-85
2023/01/04 23:10:43;;;;;;;2.47;2.28;;;8.70;65.30;;;;;;5114874;28;20039;-84
2023/01/04 23:13:09;;;;;;;2.20;2.00;;;8.60;65.20;;;;;;5114670;28;20408;-82
2023/01/04 23:15:36;;;;;;;2.20;2.10;;;8.60;65.20;;;;;;5114990;28;20373;-83
2023/01/04 23:18:02;;;;;;;2.30;2.10;;;8.60;65.20;;;;;;5114864;28;20111;-84
2023/01/04 23:20:27;;;;;;;2.10;2.00;;;8.70;65.30;;;;;;5115211;28;20111;-83
2023/01/04 23:22:53;;;;;;;2.30;2.10;;;8.60;65.20;;;;;;5114528;28;20031;-83
2023/01/04 23:25:18;;;;;;;2.22;2.13;;;8.60;65.20;;;;;;5114630;28;20093;-83
2023/01/04 23:27:44;;;;;;;2.28;2.10;;;8.60;65.20;;;;;;5114957;28;20568;-82
2023/01/04 23:30:11;;;;;;;2.47;2.28;;;8.60;65.20;;;;;;5114347;28;20075;-83
2023/01/04 23:32:36;;;;;;;2.15;2.05;;;8.60;65.10;;;;;;5114498;28;20499;-83
2023/01/04 23:35:02;;;;;;;1.98;1.88;;;8.60;65.10;;;;;;5114661;28;20016;-83
2023/01/04 23:37:30;;;;;;;2.47;2.30;;;8.60;65.10;;;;;;5114461;28;20102;-83
2023/01/04 23:39:55;;;;;;;2.20;2.00;;;8.60;65.10;;;;;;5114415;28;20031;-83
2023/01/04 23:42:21;;;;;;;2.10;2.00;;;8.60;65.10;;;;;;5114468;28;20023;-83
2023/01/04 23:44:46;;;;;;;2.40;2.20;;;8.60;65.10;;;;;;5113947;28;20063;-83
2023/01/04 23:47:12;;;;;;;2.58;2.38;;;8.60;65.10;;;;;;5096459;28;20054;-81
2023/01/04 23:49:38;;;;;;;2.42;2.22;;;8.60;65.10;;;;;;5114341;28;20032;-83
2023/01/04 23:52:05;;;;;;;2.28;2.17;;;8.60;65.10;;;;;;5114303;28;20486;-83
2023/01/04 23:54:31;;;;;;;2.45;2.30;;;8.60;65.10;;;;;;5114500;28;20026;-82
2023/01/04 23:56:58;;;;;;;2.15;2.00;;;8.60;65.10;;;;;;5114041;28;20110;-82
2023/01/04 23:59:24;;;;;;;2.40;2.20;;;8.60;65.10;;;;;;5114555;28;20044;-83
